createdAt,value
2022-09-29T00:02:10.134Z,78.20
2022-09-29T00:06:21.771Z,78.29
2022-09-29T00:10:33.289Z,78.24
2022-09-29T00:14:47.823Z,78.26
2022-09-29T00:18:59.843Z,78.47
2022-09-29T00:23:11.398Z,78.13
2022-09-29T00:27:23.006Z,78.81
2022-09-29T00:31:34.700Z,78.20
2022-09-29T00:35:56.909Z,78.70
2022-09-29T00:40:09.535Z,78.55
2022-09-29T00:44:20.982Z,78.98
2022-09-29T00:48:33.174Z,78.87
2022-09-29T00:52:49.765Z,78.75
2022-09-29T00:57:02.503Z,78.75
2022-09-29T01:01:14.544Z,78.91
2022-09-29T01:05:32.691Z,79.05
2022-09-29T01:09:44.226Z,79.00
2022-09-29T01:14:01.491Z,79.02
2022-09-29T01:18:13.072Z,79.21
2022-09-29T01:22:57.833Z,79.05
2022-09-29T01:27:31.065Z,79.50
2022-09-29T01:31:58.080Z,79.47
2022-09-29T01:36:40.201Z,79.42
2022-09-29T01:40:57.564Z,79.45
2022-09-29T01:45:30.480Z,79.48
2022-09-29T01:49:47.870Z,79.38
2022-09-29T01:54:04.691Z,79.31
2022-09-29T01:58:22.846Z,79.75
2022-09-29T02:02:41.643Z,79.61
2022-09-29T02:07:03.248Z,79.55
2022-09-29T02:11:16.690Z,79.41
2022-09-29T02:15:32.775Z,79.22
2022-09-29T02:19:44.390Z,79.63
2022-09-29T02:23:56.583Z,79.70
2022-09-29T02:28:08.508Z,79.77
2022-09-29T02:32:20.294Z,79.84
2022-09-29T02:37:02.265Z,79.65
2022-09-29T02:41:32.048Z,79.76
2022-09-29T02:46:17.586Z,79.70
2022-09-29T02:50:50.449Z,79.89
2022-09-29T02:55:12.637Z,80.36
2022-09-29T02:59:46.019Z,80.03
2022-09-29T03:04:00.972Z,79.80
2022-09-29T03:08:16.013Z,80.02
2022-09-29T03:12:27.459Z,79.90
2022-09-29T03:16:39.531Z,80.07
2022-09-29T03:20:54.106Z,80.13
2022-09-29T03:25:06.916Z,80.05
2022-09-29T03:29:18.364Z,79.98
2022-09-29T03:33:30.085Z,80.16
2022-09-29T03:37:41.540Z,80.33
2022-09-29T03:41:53.281Z,80.33
2022-09-29T03:46:04.888Z,80.23
2022-09-29T03:50:16.431Z,80.50
2022-09-29T03:54:28.085Z,80.60
2022-09-29T03:58:39.557Z,80.40
2022-09-29T04:02:54.714Z,80.47
2022-09-29T04:07:06.208Z,80.72
2022-09-29T04:11:17.719Z,80.76
2022-09-29T04:15:29.592Z,81.11
2022-09-29T04:19:41.034Z,80.54
2022-09-29T04:23:52.532Z,80.74
2022-09-29T04:28:04.113Z,81.15
2022-09-29T04:32:15.610Z,80.96
2022-09-29T04:36:27.554Z,81.40
2022-09-29T04:40:39.123Z,80.99
2022-09-29T04:44:50.607Z,81.10
2022-09-29T04:49:02.048Z,81.35
2022-09-29T04:53:13.589Z,81.14
2022-09-29T04:57:25.064Z,81.27
2022-09-29T05:01:36.716Z,81.73
2022-09-29T05:05:48.173Z,81.87
2022-09-29T05:09:59.656Z,82.27
2022-09-29T05:14:11.482Z,82.48
2022-09-29T05:18:24.006Z,82.12
2022-09-29T05:22:35.503Z,82.20
2022-09-29T05:26:47.013Z,82.46
2022-09-29T05:31:04.908Z,82.16
2022-09-29T05:35:16.435Z,82.39
2022-09-29T05:39:27.948Z,82.38
2022-09-29T05:43:41.559Z,82.96
2022-09-29T05:47:54.666Z,82.84
2022-09-29T05:52:06.397Z,82.64
2022-09-29T05:56:20.493Z,82.95
2022-09-29T06:00:33.081Z,82.88
2022-09-29T06:04:44.566Z,83.15
2022-09-29T06:08:58.476Z,83.11
2022-09-29T06:13:09.958Z,82.81
2022-09-29T06:17:21.724Z,82.98
2022-09-29T06:21:35.184Z,82.87
2022-09-29T06:25:46.761Z,82.83
2022-09-29T06:29:59.878Z,82.90
2022-09-29T06:34:11.862Z,83.03
2022-09-29T06:38:23.411Z,83.25
2022-09-29T06:42:35.469Z,82.93
2022-09-29T06:46:48.087Z,83.11
2022-09-29T06:51:09.675Z,82.68
2022-09-29T06:55:21.795Z,82.99
2022-09-29T06:59:33.829Z,82.90
2022-09-29T07:03:45.312Z,82.88
2022-09-29T07:08:00.878Z,82.66
2022-09-29T07:12:12.712Z,82.22
2022-09-29T07:16:24.734Z,82.18
2022-09-29T07:20:36.556Z,82.50
2022-09-29T07:24:48.753Z,82.30
2022-09-29T07:29:00.309Z,82.11
2022-09-29T07:33:11.937Z,81.61
2022-09-29T07:37:23.822Z,81.38
2022-09-29T07:41:35.374Z,81.22
2022-09-29T07:45:51.384Z,81.00
2022-09-29T07:50:03.314Z,80.48
2022-09-29T07:54:14.782Z,80.12
2022-09-29T07:58:26.279Z,80.06
2022-09-29T08:02:37.812Z,78.81
2022-09-29T08:06:49.442Z,78.18
2022-09-29T08:11:06.392Z,77.38
2022-09-29T08:15:17.888Z,76.65
2022-09-29T08:19:29.394Z,74.53
2022-09-29T08:23:42.661Z,73.34
2022-09-29T08:27:55.939Z,73.01
2022-09-29T08:32:07.598Z,72.32
2022-09-29T08:36:20.425Z,72.10
2022-09-29T08:40:32.130Z,72.55
2022-09-29T08:44:46.896Z,69.53
2022-09-29T08:49:03.039Z,69.07
2022-09-29T08:53:27.169Z,67.72
2022-09-29T08:57:40.491Z,67.52
2022-09-29T09:01:55.082Z,67.99
2022-09-29T09:06:21.113Z,68.33
2022-09-29T09:10:47.469Z,68.46
2022-09-29T09:15:09.787Z,68.55
2022-09-29T09:19:55.170Z,68.53
2022-09-29T09:24:20.248Z,69.00
2022-09-29T09:28:40.392Z,65.90
2022-09-29T09:33:01.012Z,63.24
2022-09-29T09:37:33.189Z,60.26
2022-09-29T09:41:56.362Z,59.34
2022-09-29T09:46:13.985Z,58.34
2022-09-29T09:50:26.118Z,58.19
2022-09-29T09:54:44.860Z,57.35
2022-09-29T09:58:59.326Z,55.58
2022-09-29T10:03:12.278Z,53.17
2022-09-29T10:07:27.608Z,51.36
2022-09-29T10:11:39.125Z,50.48
2022-09-29T10:16:13.541Z,47.81
2022-09-29T10:20:34.478Z,47.59
2022-09-29T10:24:46.040Z,47.18
2022-09-29T10:29:01.564Z,46.42
2022-09-29T10:33:17.094Z,44.70
2022-09-29T10:37:38.286Z,43.90
2022-09-29T10:41:53.885Z,42.35
2022-09-29T10:46:26.400Z,42.27
2022-09-29T10:50:54.137Z,41.67
2022-09-29T10:55:06.139Z,41.58
2022-09-29T10:59:18.149Z,41.84
2022-09-29T11:03:29.665Z,42.53
2022-09-29T11:07:46.851Z,41.82
2022-09-29T11:12:01.649Z,42.11
2022-09-29T11:16:30.825Z,41.76
2022-09-29T11:20:42.415Z,41.54
2022-09-29T11:25:32.080Z,40.08
2022-09-29T11:30:15.541Z,39.98
2022-09-29T11:34:46.625Z,39.69
2022-09-29T11:39:15.809Z,39.37
2022-09-29T11:43:42.068Z,39.33
2022-09-29T11:48:11.735Z,39.12
2022-09-29T11:52:42.202Z,39.52
2022-09-29T11:57:06.102Z,38.61
2022-09-29T12:01:39.260Z,37.69
2022-09-29T12:06:10.080Z,36.82
2022-09-29T12:10:36.939Z,36.18
2022-09-29T12:15:25.757Z,35.54
2022-09-29T12:19:40.961Z,36.55
2022-09-29T12:23:53.066Z,36.98
2022-09-29T12:28:15.688Z,37.96
2022-09-29T12:33:00.029Z,38.70
2022-09-29T12:37:32.429Z,39.57
2022-09-29T12:41:50.952Z,40.37
2022-09-29T12:46:20.620Z,40.71
2022-09-29T12:50:41.269Z,41.33
2022-09-29T12:54:57.484Z,42.01
2022-09-29T12:59:14.899Z,42.64
2022-09-29T13:03:55.367Z,42.75
2022-09-29T13:08:42.605Z,42.51
2022-09-29T13:13:35.082Z,42.15
2022-09-29T13:18:05.315Z,42.96
2022-09-29T13:23:14.245Z,44.02
2022-09-29T13:27:37.341Z,44.66
2022-09-29T13:31:51.165Z,45.74
2022-09-29T13:36:03.060Z,46.31
2022-09-29T13:40:33.177Z,46.36
2022-09-29T13:45:15.312Z,45.97
2022-09-29T13:49:30.487Z,45.79
2022-09-29T13:53:42.080Z,44.94
2022-09-29T13:57:53.630Z,43.99
2022-09-29T14:02:29.946Z,44.18
2022-09-29T14:06:47.638Z,44.45
2022-09-29T14:11:13.553Z,44.22
2022-09-29T14:15:26.527Z,44.22
2022-09-29T14:20:13.553Z,44.01
2022-09-29T14:24:34.320Z,43.44
2022-09-29T14:28:47.196Z,43.97
2022-09-29T14:33:16.724Z,43.35
2022-09-29T14:37:28.306Z,43.25
2022-09-29T14:41:42.861Z,43.02
2022-09-29T14:46:28.206Z,42.75
2022-09-29T14:51:12.583Z,43.18
2022-09-29T14:55:33.260Z,43.82
2022-09-29T15:00:01.633Z,43.23
2022-09-29T15:04:16.404Z,43.23
2022-09-29T15:08:31.540Z,43.10
2022-09-29T15:12:51.096Z,43.67
2022-09-29T15:17:15.659Z,44.74
2022-09-29T15:21:56.666Z,44.80
2022-09-29T15:26:13.229Z,45.03
2022-09-29T15:30:25.028Z,45.17
2022-09-29T15:34:39.389Z,45.02
2022-09-29T15:38:53.249Z,45.61
2022-09-29T15:43:41.081Z,46.35
2022-09-29T15:48:05.725Z,46.94
2022-09-29T15:52:20.775Z,47.90
2022-09-29T15:56:32.572Z,48.68
2022-09-29T16:00:44.783Z,49.16
2022-09-29T16:05:00.448Z,49.40
2022-09-29T16:09:21.112Z,49.79
2022-09-29T16:13:35.917Z,50.35
2022-09-29T16:17:49.628Z,50.09
2022-09-29T16:22:04.898Z,50.37
2022-09-29T16:26:32.734Z,50.32
2022-09-29T16:31:01.870Z,50.71
2022-09-29T16:35:51.319Z,50.95
2022-09-29T16:40:03.036Z,50.97
2022-09-29T16:44:17.904Z,51.72
2022-09-29T16:48:36.049Z,51.92
2022-09-29T16:52:50.584Z,52.30
2022-09-29T16:57:25.860Z,52.66
2022-09-29T17:01:41.560Z,52.57
2022-09-29T17:05:54.200Z,53.21
2022-09-29T17:10:07.362Z,55.47
2022-09-29T17:14:18.940Z,55.34
2022-09-29T17:18:30.946Z,55.17
2022-09-29T17:22:42.506Z,55.62
2022-09-29T17:27:12.559Z,55.79
2022-09-29T17:31:24.140Z,56.25
2022-09-29T17:35:41.176Z,56.93
2022-09-29T17:39:52.943Z,57.72
2022-09-29T17:44:06.050Z,58.19
2022-09-29T17:48:19.996Z,58.83
2022-09-29T17:52:32.437Z,59.13
2022-09-29T17:56:44.321Z,59.70
2022-09-29T18:00:57.442Z,60.06
2022-09-29T18:05:10.782Z,60.73
2022-09-29T18:09:22.341Z,61.13
2022-09-29T18:13:33.931Z,61.54
2022-09-29T18:17:46.074Z,62.26
2022-09-29T18:21:58.204Z,62.73
2022-09-29T18:26:11.499Z,63.09
2022-09-29T18:30:29.447Z,63.59
2022-09-29T18:34:41.166Z,64.21
2022-09-29T18:38:52.698Z,64.70
2022-09-29T18:43:06.334Z,65.06
2022-09-29T18:47:17.902Z,65.17
2022-09-29T18:51:30.220Z,65.41
2022-09-29T18:55:42.029Z,65.57
2022-09-29T18:59:53.543Z,65.69
2022-09-29T19:04:05.290Z,66.15
2022-09-29T19:08:18.120Z,66.50
2022-09-29T19:12:31.597Z,66.54
2022-09-29T19:16:43.110Z,66.67
2022-09-29T19:20:57.286Z,67.30
2022-09-29T19:25:15.593Z,66.81
2022-09-29T19:29:27.283Z,67.41
2022-09-29T19:33:40.545Z,67.85
2022-09-29T19:37:52.335Z,67.93
2022-09-29T19:42:03.886Z,67.93
2022-09-29T19:46:17.167Z,68.51
2022-09-29T19:50:47.852Z,68.58
2022-09-29T19:54:59.417Z,68.43
2022-09-29T19:59:13.952Z,68.74
2022-09-29T20:03:25.614Z,69.36
2022-09-29T20:07:38.327Z,69.21
2022-09-29T20:11:49.882Z,69.59
2022-09-29T20:16:01.843Z,69.96
2022-09-29T20:20:13.370Z,69.68
2022-09-29T20:24:25.083Z,69.63
2022-09-29T20:28:37.717Z,70.07
2022-09-29T20:32:49.495Z,70.32
2022-09-29T20:37:01.009Z,70.01
2022-09-29T20:41:13.896Z,69.98
2022-09-29T20:45:25.458Z,70.26
2022-09-29T20:49:38.236Z,70.43
2022-09-29T20:53:55.690Z,70.57
2022-09-29T20:58:07.284Z,70.71
2022-09-29T21:02:19.001Z,71.08
2022-09-29T21:06:32.659Z,71.13
2022-09-29T21:10:44.228Z,71.38
2022-09-29T21:14:56.281Z,71.45
2022-09-29T21:19:09.296Z,71.60
2022-09-29T21:23:21.933Z,71.73
2022-09-29T21:27:36.670Z,71.78
2022-09-29T21:31:50.964Z,71.84
2022-09-29T21:36:04.701Z,72.25
2022-09-29T21:40:16.213Z,72.21
2022-09-29T21:44:27.712Z,72.17
2022-09-29T21:48:42.026Z,72.33
2022-09-29T21:52:53.475Z,72.29
2022-09-29T21:57:06.749Z,72.75
2022-09-29T22:01:18.798Z,72.59
2022-09-29T22:05:31.399Z,73.02
2022-09-29T22:09:42.914Z,72.73
2022-09-29T22:13:58.250Z,73.17
2022-09-29T22:18:10.512Z,73.24
2022-09-29T22:22:22.029Z,73.11
2022-09-29T22:26:33.969Z,73.32
2022-09-29T22:30:45.435Z,73.47
2022-09-29T22:34:56.989Z,73.70
2022-09-29T22:39:08.598Z,73.53
2022-09-29T22:43:20.262Z,73.72
2022-09-29T22:47:31.748Z,73.66
2022-09-29T22:51:43.235Z,73.85
2022-09-29T22:55:54.812Z,73.95
2022-09-29T23:00:06.898Z,74.08
2022-09-29T23:04:18.443Z,74.31
2022-09-29T23:08:32.143Z,74.45
2022-09-29T23:12:44.740Z,74.47
2022-09-29T23:16:56.301Z,74.64
2022-09-29T23:21:07.748Z,74.38
2022-09-29T23:25:19.262Z,74.78
2022-09-29T23:29:30.864Z,74.69
2022-09-29T23:33:42.875Z,74.65
2022-09-29T23:38:13.092Z,74.89
2022-09-29T23:42:25.282Z,74.97
2022-09-29T23:46:38.286Z,75.31
2022-09-29T23:50:49.836Z,75.09
2022-09-29T23:55:01.340Z,75.17
2022-09-29T23:59:12.932Z,75.34
